Time;durP1;ratioP1;P1;durP2;ratioP2;P2;SDS_P1;SDS_P2;PMS_P1;PMS_P2;Temp;Humidity;BMP_temperature;BMP_pressure;BME280_temperature;BME280_humidity;BME280_pressure;Samples;Min_cycle;Max_cycle;Signal;HPM_P1;HPM_P2
2021/09/16 00:00:11;;;;;;;17.08;9.13;;;19.70;1.00;;;;;;5052332;28;20025;-81
2021/09/16 00:02:38;;;;;;;18.25;10.57;;;19.70;1.00;;;;;;5052672;28;20021;-81
2021/09/16 00:05:04;;;;;;;19.00;10.18;;;19.70;1.00;;;;;;5052319;28;20511;-81
2021/09/16 00:07:29;;;;;;;18.33;10.85;;;19.70;1.00;;;;;;5054182;28;20040;-81
2021/09/16 00:09:55;;;;;;;18.88;10.25;;;19.70;1.00;;;;;;5051518;28;20029;-81
2021/09/16 00:12:21;;;;;;;20.13;11.52;;;19.60;1.00;;;;;;5052151;28;20033;-81
2021/09/16 00:14:46;;;;;;;19.42;11.10;;;19.50;1.00;;;;;;5052415;28;20512;-82
2021/09/16 00:17:12;;;;;;;16.83;10.80;;;19.50;1.00;;;;;;5050502;28;20055;-81
2021/09/16 00:19:38;;;;;;;16.38;10.43;;;19.50;1.00;;;;;;5053879;28;20037;-81
2021/09/16 00:22:04;;;;;;;20.50;12.05;;;19.50;1.00;;;;;;5052933;28;20017;-81
2021/09/16 00:24:29;;;;;;;17.63;12.00;;;19.40;1.00;;;;;;5051483;28;20029;-81
2021/09/16 00:26:55;;;;;;;18.05;10.77;;;19.40;1.00;;;;;;5051652;28;20111;-82
2021/09/16 00:29:21;;;;;;;14.90;10.68;;;19.40;1.00;;;;;;5051630;28;20112;-81
2021/09/16 00:31:46;;;;;;;15.63;10.98;;;19.40;1.00;;;;;;5052877;28;20105;-81
2021/09/16 00:34:12;;;;;;;17.52;10.60;;;19.40;1.00;;;;;;5052996;28;20277;-81
2021/09/16 00:36:37;;;;;;;20.52;11.35;;;19.40;1.00;;;;;;5051150;28;20452;-81
2021/09/16 00:39:04;;;;;;;23.30;11.30;;;19.50;1.00;;;;;;5051012;28;20036;-81
2021/09/16 00:41:30;;;;;;;20.92;10.85;;;19.50;1.00;;;;;;5051812;28;20497;-81
2021/09/16 00:43:57;;;;;;;16.92;11.60;;;19.60;1.00;;;;;;5051593;28;20024;-81
2021/09/16 00:46:23;;;;;;;16.60;11.80;;;19.60;1.00;;;;;;5053874;28;20053;-81
2021/09/16 00:48:48;;;;;;;24.02;12.73;;;19.60;1.00;;;;;;5051076;28;20055;-82
2021/09/16 00:51:14;;;;;;;20.20;12.73;;;19.50;1.00;;;;;;5051784;28;20451;-82
2021/09/16 00:53:40;;;;;;;22.98;13.88;;;19.40;1.00;;;;;;5050892;28;20027;-81
2021/09/16 00:56:09;;;;;;;18.50;13.50;;;19.40;1.00;;;;;;5034450;28;20029;-82
2021/09/16 00:58:40;;;;;;;18.73;13.60;;;19.50;1.00;;;;;;5049055;28;20100;-81
2021/09/16 01:01:07;;;;;;;22.58;13.68;;;19.40;1.00;;;;;;5050611;28;20021;-81
2021/09/16 01:03:33;;;;;;;24.13;13.88;;;19.30;1.00;;;;;;5051373;28;20045;-81
2021/09/16 01:05:59;;;;;;;21.83;15.45;;;19.50;1.00;;;;;;5050740;28;20056;-81
2021/09/16 01:08:25;;;;;;;26.05;15.00;;;19.60;1.00;;;;;;5051052;28;20076;-81
2021/09/16 01:10:51;;;;;;;21.10;14.68;;;19.70;1.00;;;;;;5051444;28;20029;-81
2021/09/16 01:13:17;;;;;;;25.90;14.13;;;19.70;1.00;;;;;;5053146;28;20595;-82
2021/09/16 01:15:44;;;;;;;21.27;14.90;;;19.70;1.00;;;;;;5050843;28;20033;-81
2021/09/16 01:18:10;;;;;;;22.63;15.02;;;19.40;1.00;;;;;;5050663;28;20501;-81
2021/09/16 01:20:36;;;;;;;22.35;14.27;;;19.50;1.00;;;;;;5051845;28;20060;-81
2021/09/16 01:23:02;;;;;;;21.50;14.52;;;19.50;1.00;;;;;;5050963;28;20057;-81
2021/09/16 01:25:29;;;;;;;22.83;14.88;;;19.50;1.00;;;;;;5052753;28;20035;-81
2021/09/16 01:27:57;;;;;;;19.52;15.40;;;19.60;1.00;;;;;;5050523;28;20033;-81
2021/09/16 01:30:24;;;;;;;24.77;17.13;;;19.50;1.00;;;;;;5050874;28;20060;-81
2021/09/16 01:32:50;;;;;;;21.67;16.50;;;19.70;1.00;;;;;;5050756;28;20112;-81
2021/09/16 01:35:16;;;;;;;24.20;15.95;;;19.70;1.00;;;;;;5048586;28;20021;-82
2021/09/16 01:37:42;;;;;;;28.27;17.35;;;19.60;1.00;;;;;;5051717;28;20409;-81
2021/09/16 01:40:09;;;;;;;28.23;17.10;;;19.40;1.00;;;;;;5051038;28;20037;-81
2021/09/16 01:42:34;;;;;;;24.55;16.92;;;19.50;1.00;;;;;;5050347;28;20033;-82
2021/09/16 01:45:00;;;;;;;24.13;16.77;;;19.50;1.00;;;;;;5050913;28;20035;-81
2021/09/16 01:47:26;;;;;;;27.50;15.40;;;19.60;1.00;;;;;;5050037;28;20025;-81
2021/09/16 01:49:51;;;;;;;29.17;16.35;;;19.60;1.00;;;;;;5050091;28;20515;-81
2021/09/16 01:52:17;;;;;;;24.42;17.00;;;19.60;1.00;;;;;;5051859;28;20055;-81
2021/09/16 01:54:43;;;;;;;32.72;17.00;;;19.50;1.00;;;;;;5050317;28;20366;-81
2021/09/16 01:57:09;;;;;;;30.10;16.80;;;19.50;1.00;;;;;;5050282;28;20079;-81
2021/09/16 01:59:35;;;;;;;23.83;16.35;;;19.40;1.00;;;;;;5050140;28;20037;-81
2021/09/16 02:02:01;;;;;;;26.25;16.60;;;19.50;1.00;;;;;;5049967;28;20033;-81
2021/09/16 02:04:27;;;;;;;18.35;13.90;;;19.30;1.00;;;;;;5051776;28;20098;-82
2021/09/16 02:06:53;;;;;;;17.75;15.00;;;19.30;1.00;;;;;;5050484;28;20033;-82
2021/09/16 02:09:18;;;;;;;18.35;14.93;;;19.30;1.00;;;;;;5049743;28;20035;-81
2021/09/16 02:11:45;;;;;;;18.73;14.55;;;19.40;1.00;;;;;;5049794;28;20032;-81
2021/09/16 02:14:10;;;;;;;21.25;15.80;;;19.30;1.00;;;;;;5048201;28;20033;-81
2021/09/16 02:16:36;;;;;;;17.05;14.35;;;19.30;1.00;;;;;;5052474;28;20370;-81
2021/09/16 02:19:03;;;;;;;16.15;14.05;;;19.20;1.00;;;;;;5049427;28;20127;-81
2021/09/16 02:21:29;;;;;;;18.95;13.70;;;19.00;1.00;;;;;;5049446;28;20155;-81
2021/09/16 02:23:54;;;;;;;19.13;13.35;;;18.90;1.00;;;;;;5049691;28;20111;-81
2021/09/16 02:26:20;;;;;;;20.05;14.00;;;19.00;1.00;;;;;;5049736;28;20025;-81
2021/09/16 02:28:45;;;;;;;16.98;13.73;;;19.00;1.00;;;;;;5050942;28;20044;-81
2021/09/16 02:31:11;;;;;;;20.08;14.80;;;19.00;1.00;;;;;;5050520;28;20044;-81
2021/09/16 02:33:37;;;;;;;18.30;14.65;;;19.10;1.00;;;;;;5049042;28;20104;-81
2021/09/16 02:36:03;;;;;;;20.98;14.45;;;19.10;1.00;;;;;;5049443;28;20052;-81
2021/09/16 02:38:28;;;;;;;25.42;15.55;;;19.20;1.00;;;;;;5049552;28;20021;-81
2021/09/16 02:40:54;;;;;;;23.45;15.48;;;19.20;1.00;;;;;;5049743;28;20033;-81
2021/09/16 02:43:20;;;;;;;23.77;15.75;;;19.30;1.00;;;;;;5051911;28;20457;-81
2021/09/16 02:45:45;;;;;;;23.27;16.45;;;19.40;1.00;;;;;;5049308;28;20029;-81
2021/09/16 02:48:12;;;;;;;16.83;14.02;;;19.40;1.00;;;;;;5049052;28;20029;-81
2021/09/16 02:50:37;;;;;;;20.30;14.73;;;19.20;1.00;;;;;;5049294;28;20353;-81
2021/09/16 02:53:03;;;;;;;20.73;15.00;;;19.20;1.00;;;;;;5048996;28;20029;-81
2021/09/16 02:55:29;;;;;;;22.42;14.90;;;19.30;1.00;;;;;;5050670;28;20615;-81
2021/09/16 02:57:54;;;;;;;23.05;14.38;;;19.30;1.00;;;;;;5049636;28;20087;-81
2021/09/16 03:00:20;;;;;;;22.98;13.80;;;19.30;1.00;;;;;;5051881;28;20037;-81
2021/09/16 03:02:46;;;;;;;21.48;14.32;;;19.30;1.00;;;;;;5053011;28;20104;-81
2021/09/16 03:05:12;;;;;;;34.42;16.63;;;19.20;1.00;;;;;;5053126;28;20029;-81
2021/09/16 03:07:38;;;;;;;28.08;15.85;;;19.20;1.00;;;;;;5055895;28;20049;-82
2021/09/16 03:10:05;;;;;;;34.75;17.30;;;19.20;1.00;;;;;;5052192;28;20079;-81
2021/09/16 03:12:31;;;;;;;35.50;16.38;;;19.20;1.00;;;;;;5053501;28;20024;-81
2021/09/16 03:14:57;;;;;;;23.35;15.77;;;19.10;1.00;;;;;;5052864;28;20049;-81
2021/09/16 03:17:23;;;;;;;22.90;16.42;;;19.10;1.00;;;;;;5052520;28;20439;-82
2021/09/16 03:19:49;;;;;;;25.50;15.70;;;19.20;1.00;;;;;;5054606;28;20029;-81
2021/09/16 03:22:15;;;;;;;20.25;14.85;;;19.20;1.00;;;;;;5054529;28;20067;-81
2021/09/16 03:24:40;;;;;;;19.52;15.00;;;19.20;1.00;;;;;;5052848;28;20104;-81
2021/09/16 03:27:06;;;;;;;24.42;15.20;;;19.20;1.00;;;;;;5052836;28;20501;-81
2021/09/16 03:29:31;;;;;;;25.27;15.68;;;19.20;1.00;;;;;;5053259;28;20489;-81
2021/09/16 03:31:57;;;;;;;21.58;15.30;;;19.10;1.00;;;;;;5053032;28;20032;-81
2021/09/16 03:34:24;;;;;;;25.45;16.20;;;19.10;1.00;;;;;;5053293;28;20036;-81
2021/09/16 03:36:49;;;;;;;21.50;14.25;;;19.10;1.00;;;;;;5034940;28;20392;-81
2021/09/16 03:39:15;;;;;;;19.20;12.38;;;19.10;1.00;;;;;;5053319;28;20029;-81
2021/09/16 03:41:40;;;;;;;17.13;12.75;;;18.90;1.00;;;;;;5052714;28;20032;-81
2021/09/16 03:44:06;;;;;;;17.48;13.50;;;19.10;1.00;;;;;;5052231;28;20130;-81
2021/09/16 03:46:32;;;;;;;19.75;13.55;;;19.20;1.00;;;;;;5054468;28;20029;-81
2021/09/16 03:48:57;;;;;;;25.05;14.68;;;19.30;1.00;;;;;;5052332;28;20039;-81
2021/09/16 03:51:23;;;;;;;26.33;16.70;;;19.20;1.00;;;;;;5052288;28;20036;-81
2021/09/16 03:53:49;;;;;;;17.65;14.70;;;19.20;1.00;;;;;;5052436;28;20029;-81
2021/09/16 03:56:14;;;;;;;21.77;15.63;;;19.20;1.00;;;;;;5052494;28;20029;-81
2021/09/16 03:58:40;;;;;;;16.80;13.68;;;19.20;1.00;;;;;;5054120;28;20029;-80
2021/09/16 04:01:06;;;;;;;14.90;13.07;;;19.20;1.00;;;;;;5052907;28;20017;-82
2021/09/16 04:03:31;;;;;;;17.25;13.85;;;19.20;1.00;;;;;;5052109;28;20059;-81
2021/09/16 04:05:57;;;;;;;16.02;13.10;;;19.20;1.00;;;;;;5052609;28;20052;-81
2021/09/16 04:08:22;;;;;;;15.77;12.60;;;19.20;1.00;;;;;;5052293;28;20029;-81
2021/09/16 04:10:48;;;;;;;14.48;11.48;;;19.20;1.00;;;;;;5051493;28;20045;-81
2021/09/16 04:13:13;;;;;;;15.60;12.00;;;19.20;1.00;;;;;;5052043;28;20037;-81
2021/09/16 04:15:40;;;;;;;13.02;11.23;;;19.30;1.00;;;;;;5051957;28;20054;-81
2021/09/16 04:18:05;;;;;;;15.00;11.90;;;19.20;1.00;;;;;;5051790;28;20546;-82
2021/09/16 04:20:31;;;;;;;11.95;10.75;;;19.30;1.00;;;;;;5052097;28;20033;-81
2021/09/16 04:22:57;;;;;;;14.63;11.90;;;19.20;1.00;;;;;;5052033;28;20025;-81
2021/09/16 04:25:23;;;;;;;22.52;14.77;;;19.30;1.00;;;;;;5053939;28;20058;-81
2021/09/16 04:27:48;;;;;;;19.77;14.68;;;19.20;1.00;;;;;;5051577;28;20068;-81
2021/09/16 04:30:14;;;;;;;26.70;16.48;;;19.00;1.00;;;;;;5033838;28;20048;-81
2021/09/16 04:32:40;;;;;;;24.23;15.32;;;18.90;1.00;;;;;;5051740;28;20063;-81
2021/09/16 04:35:07;;;;;;;20.02;15.25;;;18.80;1.00;;;;;;5053037;28;20496;-81
2021/09/16 04:37:33;;;;;;;24.35;15.75;;;19.00;1.00;;;;;;5054105;28;20021;-81
2021/09/16 04:39:59;;;;;;;23.65;14.75;;;19.00;1.00;;;;;;5051333;28;20509;-81
2021/09/16 04:42:25;;;;;;;20.17;14.25;;;18.70;1.00;;;;;;5051438;28;20055;-81
2021/09/16 04:44:51;;;;;;;26.63;15.35;;;18.80;1.00;;;;;;5051027;28;20500;-81
2021/09/16 04:47:16;;;;;;;18.98;14.20;;;18.90;1.00;;;;;;5033630;28;20412;-81
2021/09/16 04:49:42;;;;;;;17.45;13.23;;;19.00;1.00;;;;;;5053565;28;20134;-82
2021/09/16 04:52:07;;;;;;;18.20;12.43;;;19.00;1.00;;;;;;5050409;28;20406;-81
2021/09/16 04:54:33;;;;;;;19.00;12.48;;;19.10;1.00;;;;;;5051386;28;20112;-81
2021/09/16 04:56:59;;;;;;;17.58;13.13;;;19.20;1.00;;;;;;5050940;28;20469;-82
2021/09/16 04:59:24;;;;;;;14.20;12.10;;;19.10;1.00;;;;;;5050638;28;20035;-81
2021/09/16 05:01:50;;;;;;;16.00;12.63;;;19.10;1.00;;;;;;5051972;28;20374;-82
2021/09/16 05:04:15;;;;;;;18.95;12.18;;;19.20;1.00;;;;;;5052209;28;20045;-81
2021/09/16 05:06:41;;;;;;;14.07;11.35;;;19.10;1.00;;;;;;5050386;28;20029;-81
2021/09/16 05:09:07;;;;;;;14.18;10.88;;;19.10;1.00;;;;;;5050521;28;20029;-81
2021/09/16 05:11:39;;;;;;;15.80;11.13;;;19.00;1.00;;;;;;5051348;28;20033;-81
2021/09/16 05:14:05;;;;;;;15.85;10.82;;;19.00;1.00;;;;;;5050263;28;20084;-81
2021/09/16 05:16:31;;;;;;;13.93;10.65;;;19.00;1.00;;;;;;5053056;28;20501;-81
2021/09/16 05:18:56;;;;;;;11.88;10.13;;;19.00;1.00;;;;;;5050427;28;20025;-81
2021/09/16 05:21:22;;;;;;;13.88;10.70;;;19.00;1.00;;;;;;5050726;28;20029;-81
2021/09/16 05:23:48;;;;;;;14.52;10.60;;;19.00;1.00;;;;;;5050764;28;20032;-82
2021/09/16 05:26:13;;;;;;;13.00;10.52;;;19.10;1.00;;;;;;5050750;28;20045;-83
2021/09/16 05:28:39;;;;;;;14.10;10.65;;;19.00;1.00;;;;;;5052923;28;20021;-83
2021/09/16 05:31:05;;;;;;;13.35;10.65;;;19.10;1.00;;;;;;5051613;28;20134;-82
2021/09/16 05:33:30;;;;;;;15.20;10.63;;;19.10;1.00;;;;;;5051049;28;20091;-81
2021/09/16 05:35:56;;;;;;;20.10;11.98;;;19.10;1.00;;;;;;5050560;28;20029;-83
2021/09/16 05:38:22;;;;;;;20.15;12.13;;;19.00;1.00;;;;;;5050559;28;20032;-82
2021/09/16 05:40:48;;;;;;;18.95;13.68;;;19.00;1.00;;;;;;5051967;28;20037;-82
2021/09/16 05:43:13;;;;;;;24.90;15.52;;;19.00;1.00;;;;;;5052080;28;20089;-82
2021/09/16 05:45:39;;;;;;;29.17;16.63;;;19.00;1.00;;;;;;5051021;28;20500;-82
2021/09/16 05:48:05;;;;;;;27.48;15.82;;;19.00;1.00;;;;;;5050125;28;20033;-82
2021/09/16 05:50:31;;;;;;;28.90;16.88;;;18.90;1.00;;;;;;5051332;28;20047;-82
2021/09/16 05:52:57;;;;;;;29.45;16.75;;;18.90;1.00;;;;;;5050697;28;20021;-82
2021/09/16 05:55:22;;;;;;;26.25;15.23;;;18.90;1.00;;;;;;5052755;28;20036;-82
2021/09/16 05:57:48;;;;;;;23.50;14.13;;;18.70;1.00;;;;;;5050105;28;20025;-82
2021/09/16 06:00:15;;;;;;;27.25;14.73;;;18.80;1.00;;;;;;5050034;28;20099;-82
2021/09/16 06:02:40;;;;;;;20.25;13.05;;;18.90;1.00;;;;;;5045987;28;20401;-83
2021/09/16 06:05:07;;;;;;;18.33;12.27;;;18.90;1.00;;;;;;5041539;28;20041;-82
2021/09/16 06:07:34;;;;;;;20.67;12.48;;;19.10;1.00;;;;;;5051027;28;20019;-82
2021/09/16 06:10:00;;;;;;;19.38;11.60;;;19.20;1.00;;;;;;5030138;28;20048;-82
2021/09/16 06:12:27;;;;;;;19.00;11.40;;;19.20;1.00;;;;;;5049125;28;20017;-83
2021/09/16 06:14:53;;;;;;;19.92;12.60;;;19.30;1.00;;;;;;5048759;28;20504;-83
2021/09/16 06:17:21;;;;;;;18.40;11.80;;;19.40;1.00;;;;;;5048767;28;20485;-82
2021/09/16 06:19:47;;;;;;;18.10;11.35;;;19.40;1.00;;;;;;5050316;28;20063;-83
2021/09/16 06:22:13;;;;;;;15.15;10.73;;;19.50;1.00;;;;;;5050092;28;20021;-83
2021/09/16 06:24:38;;;;;;;17.70;10.18;;;19.50;1.00;;;;;;5049386;28;20463;-83
2021/09/16 06:27:04;;;;;;;14.88;11.85;;;19.50;1.00;;;;;;5048705;28;20397;-82
2021/09/16 06:29:30;;;;;;;17.33;11.45;;;19.50;1.00;;;;;;5049020;28;20416;-82
2021/09/16 06:31:55;;;;;;;16.42;11.80;;;19.60;1.00;;;;;;5049014;28;20397;-80
2021/09/16 06:34:21;;;;;;;17.25;11.65;;;19.60;1.00;;;;;;5050359;28;20071;-79
2021/09/16 06:36:47;;;;;;;18.90;12.48;;;19.70;1.00;;;;;;5049351;28;20373;-80
2021/09/16 06:39:13;;;;;;;18.05;12.55;;;19.80;1.00;;;;;;5049105;28;20056;-77
2021/09/16 06:41:39;;;;;;;20.40;12.80;;;19.80;1.00;;;;;;5048288;28;20035;-79
2021/09/16 06:44:04;;;;;;;18.02;11.95;;;19.80;1.00;;;;;;5048899;28;20467;-79
2021/09/16 06:46:31;;;;;;;17.42;12.95;;;19.90;1.00;;;;;;5050664;28;20078;-80
2021/09/16 06:48:57;;;;;;;20.77;12.75;;;20.00;1.00;;;;;;5047152;28;20136;-79
2021/09/16 06:51:23;;;;;;;17.52;12.15;;;20.20;1.00;;;;;;5049130;28;20107;-79
2021/09/16 06:53:48;;;;;;;18.75;12.88;;;20.30;1.00;;;;;;5029358;28;20029;-80
2021/09/16 06:56:14;;;;;;;25.35;12.73;;;20.40;1.00;;;;;;5046071;28;20045;-79
2021/09/16 06:58:40;;;;;;;17.73;11.85;;;20.40;1.00;;;;;;5047340;28;20063;-79
2021/09/16 07:01:05;;;;;;;20.33;12.63;;;20.30;1.00;;;;;;5031093;28;20064;-81
2021/09/16 07:03:31;;;;;;;16.65;11.48;;;20.20;1.00;;;;;;5048850;28;20026;-81
2021/09/16 07:05:56;;;;;;;19.13;12.40;;;20.20;1.00;;;;;;5045957;28;20079;-82
2021/09/16 07:08:22;;;;;;;17.23;12.32;;;20.30;1.00;;;;;;5047966;28;20549;-82
2021/09/16 07:10:48;;;;;;;18.67;13.10;;;20.40;1.00;;;;;;5048889;28;20131;-81
2021/09/16 07:13:13;;;;;;;19.15;12.70;;;20.40;1.00;;;;;;5049269;28;20085;-82
2021/09/16 07:15:39;;;;;;;19.73;13.45;;;20.50;1.00;;;;;;5047734;28;20040;-82
2021/09/16 07:18:05;;;;;;;18.60;13.15;;;20.60;1.00;;;;;;5048092;28;20023;-82
2021/09/16 07:20:30;;;;;;;16.58;12.27;;;20.60;1.00;;;;;;5048501;28;20118;-81
2021/09/16 07:22:56;;;;;;;17.83;12.73;;;20.60;1.00;;;;;;5047650;28;20025;-80
2021/09/16 07:25:22;;;;;;;20.02;12.55;;;20.60;1.00;;;;;;5049883;28;20036;-81
2021/09/16 07:27:47;;;;;;;17.30;12.43;;;20.60;1.00;;;;;;5050218;28;20025;-81
2021/09/16 07:30:14;;;;;;;18.30;13.18;;;20.70;1.00;;;;;;5055525;28;20524;-81
2021/09/16 07:32:40;;;;;;;21.85;13.27;;;20.60;1.00;;;;;;5048384;28;20035;-81
2021/09/16 07:35:06;;;;;;;21.33;13.55;;;20.50;1.00;;;;;;5047968;28;20033;-82
2021/09/16 07:37:31;;;;;;;17.88;12.52;;;20.70;1.00;;;;;;5050323;28;20017;-81
2021/09/16 07:39:57;;;;;;;18.63;11.90;;;20.80;1.00;;;;;;5048042;28;20029;-81
2021/09/16 07:42:23;;;;;;;17.48;13.50;;;20.90;1.00;;;;;;5048227;28;20031;-81
2021/09/16 07:44:49;;;;;;;19.40;12.88;;;21.00;1.00;;;;;;5048748;28;20024;-81
2021/09/16 07:47:14;;;;;;;16.52;11.93;;;21.20;1.00;;;;;;5052006;28;20456;-81
2021/09/16 07:49:40;;;;;;;16.48;11.85;;;21.30;1.00;;;;;;5053737;28;20497;-81
2021/09/16 07:52:06;;;;;;;17.65;12.20;;;21.40;1.00;;;;;;5051711;28;20029;-81
2021/09/16 07:54:31;;;;;;;16.30;11.23;;;21.30;1.00;;;;;;5052031;28;20078;-81
2021/09/16 07:56:57;;;;;;;15.07;11.07;;;21.20;1.00;;;;;;5051548;28;20409;-82
2021/09/16 07:59:23;;;;;;;16.55;10.70;;;21.20;1.00;;;;;;5052099;28;20497;-82
2021/09/16 08:01:48;;;;;;;16.10;11.23;;;21.20;1.00;;;;;;5052635;28;20036;-81
2021/09/16 08:04:14;;;;;;;17.40;11.85;;;21.20;1.00;;;;;;5053247;28;20029;-82
2021/09/16 08:06:40;;;;;;;15.82;10.10;;;21.10;1.00;;;;;;5049784;28;20079;-82
2021/09/16 08:09:05;;;;;;;14.18;11.55;;;20.90;1.00;;;;;;5051734;28;20051;-82
2021/09/16 08:11:31;;;;;;;14.68;11.32;;;20.90;1.00;;;;;;5051125;28;20037;-81
2021/09/16 08:13:57;;;;;;;15.88;12.88;;;21.10;1.00;;;;;;5051939;28;20044;-82
2021/09/16 08:16:23;;;;;;;18.27;12.18;;;21.20;1.00;;;;;;5052779;28;20036;-82
2021/09/16 08:18:49;;;;;;;18.60;12.25;;;21.10;1.00;;;;;;5051698;28;20502;-81
2021/09/16 08:21:15;;;;;;;19.42;12.98;;;21.50;1.00;;;;;;5050983;28;20067;-81
2021/09/16 08:23:42;;;;;;;16.35;11.95;;;22.00;1.00;;;;;;5051282;28;20041;-82
2021/09/16 08:26:08;;;;;;;17.58;13.32;;;22.90;1.00;;;;;;5035187;28;20025;-82
2021/09/16 08:28:34;;;;;;;16.05;12.10;;;23.20;1.00;;;;;;5053075;28;20029;-82
2021/09/16 08:31:02;;;;;;;20.92;13.27;;;23.60;1.00;;;;;;5050698;28;20060;-81
2021/09/16 08:33:27;;;;;;;20.92;12.63;;;23.50;1.00;;;;;;5050980;28;20377;-82
2021/09/16 08:35:53;;;;;;;16.65;13.73;;;24.40;1.00;;;;;;5050836;28;20071;-82
2021/09/16 08:38:19;;;;;;;19.02;13.45;;;24.10;1.00;;;;;;5050846;28;20104;-81
2021/09/16 08:40:45;;;;;;;16.25;11.73;;;24.00;1.00;;;;;;5051985;28;20021;-82
2021/09/16 08:43:12;;;;;;;17.42;12.18;;;23.90;1.00;;;;;;5051597;28;20060;-82
2021/09/16 08:45:37;;;;;;;13.07;11.20;;;24.00;1.00;;;;;;5049190;28;20064;-82
2021/09/16 08:48:03;;;;;;;13.50;10.93;;;24.20;1.00;;;;;;5051328;28;20064;-82
2021/09/16 08:50:30;;;;;;;15.75;11.00;;;24.70;1.00;;;;;;5050281;28;20056;-82
2021/09/16 08:52:57;;;;;;;14.18;10.95;;;24.90;1.00;;;;;;5051463;28;20393;-82
2021/09/16 08:55:24;;;;;;;13.25;10.63;;;24.70;1.00;;;;;;5052985;28;20033;-82
2021/09/16 08:58:09;;;;;;;12.65;10.23;;;25.10;1.00;;;;;;5049609;28;20023;-82
2021/09/16 09:00:35;;;;;;;12.23;9.60;;;25.30;1.00;;;;;;5050505;28;20037;-82
2021/09/16 09:03:02;;;;;;;16.15;10.27;;;25.80;1.00;;;;;;5050514;28;20442;-82
2021/09/16 09:05:31;;;;;;;12.82;10.13;;;24.90;1.00;;;;;;5050493;28;20029;-82
2021/09/16 09:07:59;;;;;;;10.93;9.43;;;24.30;1.00;;;;;;5050540;28;20021;-82
2021/09/16 09:10:37;;;;;;;10.73;9.18;;;24.50;1.00;;;;;;5051987;28;20037;-82
2021/09/16 09:13:05;;;;;;;12.82;9.07;;;25.50;1.00;;;;;;5049826;28;20473;-82
2021/09/16 09:15:31;;;;;;;12.70;9.32;;;26.30;1.00;;;;;;5051527;28;20067;-82
2021/09/16 09:18:16;;;;;;;11.60;8.70;;;25.50;1.00;;;;;;5050456;28;20478;-82
2021/09/16 09:20:53;;;;;;;11.57;7.85;;;25.70;1.00;;;;;;5049541;28;20032;-82
2021/09/16 09:23:28;;;;;;;10.65;8.02;;;32.90;99.90;;;;;;5034310;28;20044;-82
2021/09/16 09:25:54;;;;;;;11.85;8.27;;;32.80;99.90;;;;;;5050184;28;20104;-82
2021/09/16 09:28:29;;;;;;;12.52;8.77;;;32.60;99.90;;;;;;5049966;28;20064;-82
2021/09/16 09:30:55;;;;;;;12.20;9.18;;;29.70;99.90;;;;;;5049721;28;20029;-82
2021/09/16 09:33:30;;;;;;;12.23;10.05;;;27.90;99.90;;;;;;5049705;28;20489;-82
2021/09/16 09:35:55;;;;;;;13.25;8.52;;;26.40;1.00;;;;;;5049552;28;20112;-82
2021/09/16 09:38:24;;;;;;;13.73;9.48;;;25.90;1.00;;;;;;5049230;28;20108;-82
2021/09/16 09:40:55;;;;;;;15.38;9.13;;;25.80;1.00;;;;;;5050302;28;20063;-82
2021/09/16 09:43:27;;;;;;;16.00;8.52;;;26.30;1.00;;;;;;5049732;28;20033;-81
2021/09/16 09:46:15;;;;;;;11.38;8.35;;;26.90;1.00;;;;;;5049784;28;20025;-82
2021/09/16 09:49:08;;;;;;;13.98;9.10;;;26.40;1.00;;;;;;5049258;28;20028;-82
2021/09/16 09:51:40;;;;;;;11.07;8.48;;;26.10;1.00;;;;;;5049762;28;20481;-82
2021/09/16 09:54:16;;;;;;;10.07;8.27;;;26.30;1.00;;;;;;5050185;28;20070;-82
2021/09/16 09:56:56;;;;;;;12.88;8.23;;;26.60;1.00;;;;;;5049322;28;20032;-82
2021/09/16 09:59:21;;;;;;;11.18;8.98;;;28.20;99.90;;;;;;5036059;28;20021;-83
2021/09/16 10:01:47;;;;;;;10.30;8.35;;;30.70;99.90;;;;;;5050866;28;20025;-83
2021/09/16 10:04:27;;;;;;;10.95;8.10;;;33.80;99.90;;;;;;5048732;28;20088;-81
2021/09/16 10:06:57;;;;;;;12.40;8.10;;;35.60;99.90;;;;;;5050787;28;20021;-83
2021/09/16 10:09:23;;;;;;;11.10;8.18;;;33.00;99.90;;;;;;5049308;28;20398;-82
2021/09/16 10:11:50;;;;;;;12.45;7.90;;;31.20;99.90;;;;;;5050480;28;20028;-83
2021/09/16 10:14:17;;;;;;;8.90;7.63;;;36.60;99.90;;;;;;5049723;28;20131;-83
2021/09/16 10:16:44;;;;;;;10.30;7.45;;;39.50;99.90;;;;;;5051696;28;20091;-84
2021/09/16 10:19:10;;;;;;;7.85;6.97;;;40.00;99.90;;;;;;5050985;28;20025;-83
2021/09/16 10:21:36;;;;;;;8.32;7.53;;;35.50;99.90;;;;;;5049511;28;20036;-83
2021/09/16 10:24:03;;;;;;;8.05;7.25;;;34.30;99.90;;;;;;5049242;28;20096;-83
2021/09/16 10:26:40;;;;;;;10.55;7.80;;;37.40;99.90;;;;;;5050155;28;20095;-84
2021/09/16 10:29:26;;;;;;;11.52;7.60;;;36.10;99.90;;;;;;5050110;28;20017;-83
2021/09/16 10:32:12;;;;;;;8.90;6.95;;;33.60;99.90;;;;;;5040643;28;20041;-83
2021/09/16 10:35:01;;;;;;;7.85;6.07;;;33.20;99.90;;;;;;5039776;28;20463;-83
2021/09/16 10:37:36;;;;;;;8.32;6.55;;;37.40;99.90;;;;;;5051662;28;20060;-83
2021/09/16 10:40:36;;;;;;;9.32;6.72;;;38.70;99.90;;;;;;5049355;28;20024;-83
2021/09/16 10:43:03;;;;;;;9.25;6.65;;;33.90;99.90;;;;;;5008616;28;20061;-83
2021/09/16 10:45:32;;;;;;;9.77;7.03;;;32.80;99.90;;;;;;5009356;28;20075;-83
2021/09/16 10:48:13;;;;;;;13.00;7.10;;;32.10;99.90;;;;;;5004346;28;20057;-84
2021/09/16 10:50:57;;;;;;;9.48;5.45;;;30.80;99.90;;;;;;4991678;28;20097;-83
2021/09/16 10:53:45;;;;;;;9.27;5.55;;;29.70;99.90;;;;;;4993573;28;20125;-83
2021/09/16 10:56:29;;;;;;;8.43;6.47;;;29.00;99.90;;;;;;4993723;28;20033;-82
2021/09/16 10:58:57;;;;;;;7.63;6.35;;;28.80;99.90;;;;;;5006933;28;20121;-83
2021/09/16 11:01:50;;;;;;;8.98;6.45;;;28.30;99.90;;;;;;5009408;28;20021;-82
2021/09/16 11:04:17;;;;;;;8.55;6.05;;;29.00;99.90;;;;;;5004309;28;20070;-83
2021/09/16 11:06:44;;;;;;;9.30;6.93;;;33.00;99.90;;;;;;5004677;28;20453;-83
2021/09/16 11:09:12;;;;;;;9.60;6.38;;;32.30;99.90;;;;;;5004381;28;20022;-82
2021/09/16 11:11:56;;;;;;;11.43;5.97;;;31.10;99.90;;;;;;5005359;28;20046;-83
2021/09/16 11:14:28;;;;;;;7.28;5.28;;;31.60;99.90;;;;;;4993624;28;20442;-82
2021/09/16 11:16:55;;;;;;;9.23;5.80;;;35.10;99.90;;;;;;5006559;28;20045;-83
2021/09/16 11:19:20;;;;;;;11.27;6.47;;;37.00;99.90;;;;;;5043350;28;20485;-83
2021/09/16 11:22:07;;;;;;;9.07;5.35;;;33.30;99.90;;;;;;5050929;28;20162;-83
2021/09/16 11:24:39;;;;;;;7.97;5.95;;;31.60;99.90;;;;;;5053492;28;20058;-82
2021/09/16 11:27:06;;;;;;;6.68;5.90;;;30.10;99.90;;;;;;5052845;28;20428;-82
2021/09/16 11:29:43;;;;;;;7.05;6.05;;;29.90;99.90;;;;;;5053362;28;20032;-83
2021/09/16 11:32:08;;;;;;;7.53;5.70;;;30.20;99.90;;;;;;5037198;28;20068;-82
2021/09/16 11:34:35;;;;;;;7.70;6.07;;;30.30;99.90;;;;;;5055148;28;20398;-83
2021/09/16 11:37:16;;;;;;;8.45;5.68;;;30.30;99.90;;;;;;5052795;28;20028;-82
2021/09/16 11:39:42;;;;;;;8.75;7.13;;;29.60;99.90;;;;;;5052581;28;20029;-83
2021/09/16 11:42:14;;;;;;;6.65;5.85;;;29.00;99.90;;;;;;5052437;28;20499;-82
2021/09/16 11:44:55;;;;;;;8.43;6.90;;;28.30;99.90;;;;;;5052868;28;20025;-83
2021/09/16 11:47:21;;;;;;;8.40;6.55;;;28.00;99.90;;;;;;5038565;28;20021;-83
2021/09/16 11:49:47;;;;;;;12.52;7.43;;;27.40;99.90;;;;;;5053665;28;20036;-83
2021/09/16 11:52:18;;;;;;;10.88;6.93;;;27.10;99.90;;;;;;5054322;28;20041;-83
2021/09/16 11:55:08;;;;;;;9.88;6.47;;;27.10;99.90;;;;;;5052272;28;20025;-82
2021/09/16 11:57:52;;;;;;;9.10;6.68;;;27.50;99.90;;;;;;5052328;28;20409;-82
2021/09/16 12:00:24;;;;;;;7.03;5.97;;;28.10;99.90;;;;;;5050771;28;20413;-83
2021/09/16 12:02:50;;;;;;;11.32;6.78;;;28.40;99.90;;;;;;5052738;28;20095;-82
2021/09/16 12:05:39;;;;;;;10.48;7.13;;;28.30;99.90;;;;;;5052231;28;20493;-82
2021/09/16 12:08:10;;;;;;;10.95;6.93;;;28.70;99.90;;;;;;5052227;28;20460;-83
2021/09/16 12:10:39;;;;;;;10.40;7.13;;;28.80;99.90;;;;;;5050276;28;20071;-83
2021/09/16 12:13:05;;;;;;;12.35;7.20;;;29.30;99.90;;;;;;5052575;28;20039;-83
2021/09/16 12:15:31;;;;;;;11.68;6.95;;;29.60;99.90;;;;;;5051686;28;20484;-83
2021/09/16 12:17:58;;;;;;;10.43;6.40;;;29.60;99.90;;;;;;5052082;28;20028;-83
2021/09/16 12:20:23;;;;;;;7.22;6.07;;;30.00;99.90;;;;;;5052939;28;20078;-83
2021/09/16 12:22:49;;;;;;;8.93;6.50;;;30.20;99.90;;;;;;5052780;28;20485;-82
2021/09/16 12:25:15;;;;;;;11.00;6.50;;;31.10;99.90;;;;;;5053382;28;20033;-83
2021/09/16 12:27:41;;;;;;;7.47;6.32;;;30.40;99.90;;;;;;5051745;28;20028;-83
2021/09/16 12:30:19;;;;;;;7.07;6.05;;;30.40;99.90;;;;;;5052087;28;20111;-83
2021/09/16 12:32:45;;;;;;;7.13;6.15;;;30.40;99.90;;;;;;5050543;28;20021;-82
2021/09/16 12:35:18;;;;;;;10.05;6.47;;;30.10;99.90;;;;;;5052103;28;20028;-83
2021/09/16 12:37:44;;;;;;;8.65;6.93;;;32.00;99.90;;;;;;5053278;28;20028;-83
2021/09/16 12:40:26;;;;;;;10.75;6.60;;;31.50;99.90;;;;;;5050868;28;20025;-83